createdAt,value
2023-02-13T00:09:07.390Z,16.9
2023-02-13T00:19:07.946Z,18
2023-02-13T00:29:08.872Z,15.5
2023-02-13T00:39:10.031Z,17
2023-02-13T00:49:11.166Z,16.4
2023-02-13T00:59:19.450Z,29.9
2023-02-13T01:09:16.063Z,37.5
2023-02-13T01:19:14.409Z,18.6
2023-02-13T01:29:15.410Z,16.9
2023-02-13T01:39:16.389Z,14.3
2023-02-13T01:49:17.364Z,9.8
2023-02-13T01:59:18.296Z,12.9
2023-02-13T02:09:19.073Z,12.2
2023-02-13T02:19:20.137Z,9.6
2023-02-13T02:29:20.889Z,11.4
2023-02-13T02:39:21.749Z,9.9
2023-02-13T02:49:22.615Z,11.2
2023-02-13T02:59:23.331Z,12.2
2023-02-13T03:09:24.203Z,7.8
2023-02-13T03:19:24.919Z,8.9
2023-02-13T03:29:25.808Z,11.7
2023-02-13T03:39:28.219Z,11
2023-02-13T03:49:27.248Z,12.6
2023-02-13T03:59:27.900Z,8
2023-02-13T04:09:28.687Z,10.9
2023-02-13T04:19:29.359Z,10.7
2023-02-13T04:29:30.065Z,7.4
2023-02-13T04:39:30.822Z,6.7
2023-02-13T04:49:31.607Z,4.4
2023-02-13T04:59:32.290Z,2.7
2023-02-13T05:09:33.022Z,5.4
2023-02-13T05:19:33.725Z,6
2023-02-13T05:29:34.419Z,4.6
2023-02-13T05:39:35.194Z,5.3
2023-02-13T05:49:35.857Z,5.2
2023-02-13T05:59:36.536Z,3.6
2023-02-13T06:09:37.235Z,4.4
2023-02-13T06:19:37.877Z,5.7
2023-02-13T06:29:38.562Z,2.3
2023-02-13T06:39:39.257Z,2.3
2023-02-13T06:49:39.912Z,5
2023-02-13T06:59:40.580Z,4.5
2023-02-13T07:09:41.298Z,7.5
2023-02-13T07:19:41.831Z,4.1
2023-02-13T07:29:42.426Z,7.2
2023-02-13T07:39:43.048Z,6.9
2023-02-13T07:49:43.664Z,5
2023-02-13T07:59:44.208Z,3.7
2023-02-13T08:09:44.772Z,2.9
2023-02-13T08:19:45.379Z,2.5
2023-02-13T08:29:45.926Z,1.8
2023-02-13T08:39:46.455Z,2.2
2023-02-13T08:49:47.042Z,1.2
2023-02-13T08:59:47.625Z,3.6
2023-02-13T09:09:48.238Z,0.6
2023-02-13T09:19:48.809Z,2.7
2023-02-13T09:29:49.463Z,2
2023-02-13T09:39:50.056Z,0.6
2023-02-13T09:49:50.579Z,0.7
2023-02-13T09:59:51.172Z,1.9
2023-02-13T10:09:51.784Z,1.5
2023-02-13T10:19:52.420Z,1.7
2023-02-13T10:29:53.001Z,3.2
2023-02-13T10:39:53.613Z,3.5
2023-02-13T10:49:54.194Z,4.4
2023-02-13T10:59:54.789Z,8.9
2023-02-13T11:09:55.417Z,8.5
2023-02-13T11:19:55.990Z,9
2023-02-13T11:29:56.542Z,9.8
2023-02-13T11:39:57.148Z,7.1
2023-02-13T11:49:57.812Z,5.9
2023-02-13T12:00:02.593Z,6.9
2023-02-13T12:06:03.150Z,6.9
2023-02-13T12:10:00.242Z,5.6
2023-02-13T12:11:00.644Z,5.6
2023-02-13T12:20:00.824Z,5.2
2023-02-13T12:30:00.138Z,5.5
2023-02-13T12:40:00.480Z,6.4
2023-02-13T12:50:01.063Z,6.3
2023-02-13T13:00:01.494Z,5.2
2023-02-13T13:10:04.472Z,6.8
2023-02-13T13:20:02.529Z,4.5
2023-02-13T13:30:03.085Z,8.3
2023-02-13T13:40:03.574Z,5.8
2023-02-13T13:50:04.017Z,5.7
2023-02-13T14:00:05.797Z,3.2
2023-02-13T14:01:13.041Z,3.2
2023-02-13T14:06:30.540Z,3.2
2023-02-13T14:10:05.122Z,4.1
2023-02-13T14:20:05.770Z,4.1
2023-02-13T14:30:07.630Z,3.4
2023-02-13T14:40:07.413Z,5.2
2023-02-13T14:50:08.044Z,4.4
2023-02-13T15:00:08.813Z,3.3
2023-02-13T15:10:10.474Z,2.7
2023-02-13T15:20:11.265Z,3.4
2023-02-13T15:30:10.942Z,3.5
2023-02-13T15:40:11.979Z,3.9
2023-02-13T15:50:12.753Z,3.3
2023-02-13T16:00:15.940Z,2.1
2023-02-13T16:10:14.760Z,2.9
2023-02-13T16:20:15.572Z,3.2
2023-02-13T16:30:16.684Z,2
2023-02-13T16:40:17.769Z,2
2023-02-13T16:50:19.450Z,2.9
2023-02-13T17:00:20.147Z,2.9
2023-02-13T17:10:21.313Z,2.9
2023-02-13T17:20:22.369Z,3.9
2023-02-13T17:30:23.718Z,2.9
2023-02-13T17:40:25.004Z,3
2023-02-13T17:50:26.254Z,2
2023-02-13T18:00:27.345Z,2.9
2023-02-13T18:10:28.740Z,2.2
2023-02-13T18:20:29.928Z,2.4
2023-02-13T18:30:31.287Z,2
2023-02-13T18:40:32.661Z,2.5
2023-02-13T18:50:22.156Z,2.5
2023-02-13T18:50:34.038Z,2.4
2023-02-13T19:00:35.444Z,2.1
2023-02-13T19:10:36.967Z,2.4
2023-02-13T19:20:38.599Z,1.5
2023-02-13T19:30:39.891Z,2.2
2023-02-13T19:40:41.323Z,1.4
2023-02-13T19:50:42.834Z,1.9
2023-02-13T19:53:01.493Z,1.9
2023-02-13T20:00:44.279Z,1.8
2023-02-13T20:10:47.080Z,2.7
2023-02-13T20:20:59.164Z,1.6
2023-02-13T20:30:48.615Z,1.7
2023-02-13T20:40:51.239Z,1.4
2023-02-13T20:50:51.340Z,2.2
2023-02-13T21:00:52.792Z,2
2023-02-13T21:10:54.057Z,1.1
2023-02-13T21:20:55.468Z,1.3
2023-02-13T21:30:57.229Z,1.2
2023-02-13T21:40:58.480Z,1.2
2023-02-13T21:51:00.810Z,1.9
2023-02-13T22:01:01.381Z,0.9
2023-02-13T22:11:03.960Z,1.4
2023-02-13T22:21:03.637Z,1.1
2023-02-13T22:31:05.032Z,1.6
2023-02-13T22:41:06.221Z,1.4
2023-02-13T22:51:08.532Z,2.4
2023-02-13T22:52:38.266Z,2.4
2023-02-13T23:01:10.014Z,1.1
2023-02-13T23:11:11.183Z,1.1
2023-02-13T23:21:11.123Z,0.9
2023-02-13T23:31:12.147Z,1
2023-02-13T23:41:13.365Z,1.7
2023-02-13T23:51:14.657Z,1.3
